createdAt,value
2018-02-03T00:00:03.808Z,99211.77
2018-02-03T00:03:05.210Z,99215.27
2018-02-03T00:06:06.554Z,99217.47
2018-02-03T00:09:08.576Z,99218.77
2018-02-03T00:12:09.942Z,99207.78
2018-02-03T00:15:11.364Z,99204.08
2018-02-03T00:18:12.745Z,99215.80
2018-02-03T00:21:14.095Z,99222.80
2018-02-03T00:24:15.450Z,99217.52
2018-02-03T00:27:17.542Z,99219.44
2018-02-03T00:30:19.607Z,99212.77
2018-02-03T00:33:20.916Z,99213.72
2018-02-03T00:36:22.270Z,99212.66
2018-02-03T00:39:23.655Z,99210.53
2018-02-03T00:42:24.989Z,99213.66
2018-02-03T00:45:26.315Z,99217.09
2018-02-03T00:48:27.664Z,99220.53
2018-02-03T00:51:28.987Z,99208.34
2018-02-03T00:54:30.325Z,99218.44
2018-02-03T00:57:31.660Z,99230.78
2018-02-03T01:00:33.781Z,99221.97
2018-02-03T01:03:35.165Z,99225.89
2018-02-03T01:06:36.505Z,99215.01
2018-02-03T01:09:37.852Z,99219.82
2018-02-03T01:12:39.253Z,99221.08
2018-02-03T01:15:40.586Z,99221.16
2018-02-03T01:18:42.660Z,99228.09
2018-02-03T01:21:43.963Z,99230.68
2018-02-03T01:24:45.289Z,99227.21
2018-02-03T01:27:46.643Z,99225.91
2018-02-03T01:30:48.016Z,99221.26
2018-02-03T01:33:49.388Z,99218.22
2018-02-03T01:36:50.727Z,99225.13
2018-02-03T01:39:52.070Z,99227.92
2018-02-03T01:42:53.447Z,99225.30
2018-02-03T01:45:54.754Z,99228.30
2018-02-03T01:48:56.143Z,99224.78
2018-02-03T01:51:57.782Z,99228.03
2018-02-03T01:54:59.178Z,99233.98
2018-02-03T01:58:00.530Z,99237.61
2018-02-03T02:01:02.635Z,99238.69
2018-02-03T02:04:03.980Z,99228.83
2018-02-03T02:07:05.358Z,99234.69
2018-02-03T02:10:06.695Z,99231.67
2018-02-03T02:13:08.058Z,99233.61
2018-02-03T02:16:09.405Z,99228.08
2018-02-03T02:19:11.530Z,99231.89
2018-02-03T02:22:13.639Z,99234.19
2018-02-03T02:25:15.019Z,99230.41
2018-02-03T02:28:16.392Z,99231.09
2018-02-03T02:31:18.553Z,99228.58
2018-02-03T02:34:19.922Z,99231.86
2018-02-03T02:37:21.259Z,99234.55
2018-02-03T02:40:22.580Z,99234.06
2018-02-03T02:43:24.050Z,99238.11
2018-02-03T02:46:25.411Z,99223.60
2018-02-03T02:49:26.767Z,99223.77
2018-02-03T02:52:28.873Z,99233.39
2018-02-03T02:55:30.941Z,99229.55
2018-02-03T02:58:32.334Z,99240.06
2018-02-03T03:01:33.718Z,99226.43
2018-02-03T03:04:35.067Z,99221.36
2018-02-03T03:07:36.422Z,99226.28
2018-02-03T03:10:37.748Z,99220.50
2018-02-03T03:13:39.124Z,99228.45
2018-02-03T03:16:40.464Z,99228.34
2018-02-03T03:19:41.811Z,99226.16
2018-02-03T03:22:43.910Z,99221.01
2018-02-03T03:25:46.018Z,99227.06
2018-02-03T03:28:47.521Z,99231.33
2018-02-03T03:31:48.850Z,99229.59
2018-02-03T03:34:50.239Z,99227.12
2018-02-03T03:37:51.742Z,99223.11
2018-02-03T03:40:53.868Z,99233.79
2018-02-03T03:43:55.207Z,99218.39
2018-02-03T03:50:05.395Z,99238.06
2018-02-03T03:53:06.753Z,99221.45
2018-02-03T03:56:08.118Z,99218.38
2018-02-03T03:59:10.798Z,99217.11
2018-02-03T04:02:12.157Z,99218.46
2018-02-03T04:05:13.455Z,99219.33
2018-02-03T04:08:15.523Z,99227.67
2018-02-03T04:11:16.879Z,99235.55
2018-02-03T04:14:18.194Z,99231.92
2018-02-03T04:17:20.111Z,99226.28
2018-02-03T04:20:22.651Z,99222.49
2018-02-03T04:23:24.439Z,99226.16
2018-02-03T04:26:26.380Z,99225.50
2018-02-03T04:29:28.457Z,99225.13
2018-02-03T04:32:29.830Z,99216.30
2018-02-03T04:35:31.181Z,99221.64
2018-02-03T04:38:32.540Z,99213.37
2018-02-03T04:41:33.889Z,99204.69
2018-02-03T04:44:35.239Z,99195.64
2018-02-03T04:47:36.655Z,99195.49
2018-02-03T04:50:38.015Z,99195.25
2018-02-03T04:53:39.359Z,99190.48
2018-02-03T04:56:41.470Z,99190.77
2018-02-03T04:59:43.552Z,99190.52
2018-02-03T05:02:44.880Z,99205.38
2018-02-03T05:05:46.234Z,99202.55
2018-02-03T05:08:48.351Z,99187.52
2018-02-03T05:11:49.710Z,99191.88
2018-02-03T05:14:51.803Z,99183.92
2018-02-03T05:17:53.891Z,99188.67
2018-02-03T05:20:55.238Z,99179.89
2018-02-03T05:23:56.570Z,99177.37
2018-02-03T05:26:58.602Z,99179.50
2018-02-03T05:30:00.010Z,99181.74
2018-02-03T05:33:01.423Z,99177.02
2018-02-03T05:36:03.498Z,99178.24
2018-02-03T05:39:04.871Z,99162.94
2018-02-03T05:42:06.225Z,99153.09
2018-02-03T05:45:07.575Z,99152.60
2018-02-03T05:48:09.676Z,99143.16
2018-02-03T05:51:11.066Z,99154.15
2018-02-03T05:54:12.441Z,99157.03
2018-02-03T05:57:14.532Z,99157.13
2018-02-03T06:00:16.644Z,99159.06
2018-02-03T06:03:18.040Z,99153.34
2018-02-03T06:06:20.099Z,99161.38
2018-02-03T06:09:22.143Z,99157.96
2018-02-03T06:12:23.494Z,99157.13
2018-02-03T06:15:24.827Z,99152.13
2018-02-03T06:18:26.184Z,99152.75
2018-02-03T06:21:27.563Z,99148.28
2018-02-03T06:24:28.903Z,99148.09
2018-02-03T06:27:30.982Z,99155.89
2018-02-03T06:30:32.371Z,99145.56
2018-02-03T06:33:34.455Z,99136.98
2018-02-03T06:36:35.780Z,99140.84
2018-02-03T06:39:37.138Z,99154.13
2018-02-03T06:42:39.258Z,99153.36
2018-02-03T06:45:40.643Z,99163.57
2018-02-03T06:48:41.998Z,99162.90
2018-02-03T06:51:44.060Z,99165.16
2018-02-03T06:54:45.439Z,99173.94
2018-02-03T06:57:46.801Z,99176.93
2018-02-03T07:00:48.139Z,99178.17
2018-02-03T07:03:50.243Z,99173.35
2018-02-03T07:06:52.351Z,99170.23
2018-02-03T07:09:53.709Z,99163.22
2018-02-03T07:12:55.062Z,99176.02
2018-02-03T07:15:56.476Z,99174.14
2018-02-03T07:18:58.614Z,99186.83
2018-02-03T07:21:59.991Z,99186.25
2018-02-03T07:25:01.387Z,99188.06
2018-02-03T07:28:02.722Z,99184.15
2018-02-03T07:31:04.841Z,99184.65
2018-02-03T07:34:06.231Z,99179.78
2018-02-03T07:37:07.598Z,99183.69
2018-02-03T07:40:08.950Z,99182.64
2018-02-03T07:43:11.338Z,99183.57
2018-02-03T07:46:12.813Z,99176.86
2018-02-03T07:49:14.175Z,99175.70
2018-02-03T07:52:15.552Z,99171.27
2018-02-03T07:55:16.893Z,99178.33
2018-02-03T07:58:18.935Z,99176.72
2018-02-03T08:01:20.278Z,99164.48
2018-02-03T08:04:22.401Z,99178.58
2018-02-03T08:07:23.740Z,99175.14
2018-02-03T08:10:25.136Z,99164.11
2018-02-03T08:13:27.222Z,99167.77
2018-02-03T08:16:29.294Z,99155.63
2018-02-03T08:19:30.636Z,99162.87
2018-02-03T08:22:31.941Z,99168.83
2018-02-03T08:25:33.275Z,99163.95
2018-02-03T08:28:34.594Z,99158.06
2018-02-03T08:31:35.979Z,99158.73
2018-02-03T08:34:37.312Z,99153.39
2018-02-03T08:37:38.698Z,99155.13
2018-02-03T08:40:39.959Z,99156.39
2018-02-03T08:43:42.100Z,99164.00
2018-02-03T08:46:43.452Z,99144.41
2018-02-03T08:49:45.563Z,99163.42
2018-02-03T08:52:47.129Z,99156.06
2018-02-03T08:55:49.204Z,99161.75
2018-02-03T08:58:50.581Z,99158.58
2018-02-03T09:01:52.243Z,99150.53
2018-02-03T09:04:53.592Z,99145.40
2018-02-03T09:07:54.928Z,99150.77
2018-02-03T09:10:56.366Z,99150.20
2018-02-03T09:13:58.592Z,99148.58
2018-02-03T09:17:00.190Z,99139.06
2018-02-03T09:20:01.800Z,99139.91
2018-02-03T09:23:03.919Z,99145.66
2018-02-03T09:26:05.995Z,99145.51
2018-02-03T09:29:07.319Z,99142.26
2018-02-03T09:32:08.656Z,99139.73
2018-02-03T09:35:10.018Z,99142.61
2018-02-03T09:38:11.398Z,99135.59
2018-02-03T09:41:12.773Z,99137.81
2018-02-03T09:44:14.183Z,99121.76
2018-02-03T09:47:15.531Z,99126.77
2018-02-03T09:50:16.879Z,99135.88
2018-02-03T09:53:18.273Z,99138.02
2018-02-03T09:56:19.628Z,99135.11
2018-02-03T09:59:21.691Z,99129.20
2018-02-03T10:02:23.718Z,99140.25
2018-02-03T10:05:25.781Z,99134.81
2018-02-03T10:08:27.230Z,99127.60
2018-02-03T10:11:28.649Z,99134.34
2018-02-03T10:14:30.007Z,99129.77
2018-02-03T10:17:31.723Z,99131.13
2018-02-03T10:20:33.131Z,99130.94
2018-02-03T10:23:35.220Z,99151.45
2018-02-03T10:26:36.643Z,99141.34
2018-02-03T10:29:37.991Z,99139.98
2018-02-03T10:32:40.359Z,99144.89
2018-02-03T10:35:41.679Z,99129.33
2018-02-03T10:38:43.841Z,99126.79
2018-02-03T10:41:45.163Z,99131.28
2018-02-03T10:44:47.406Z,99133.70
2018-02-03T10:47:48.751Z,99136.20
2018-02-03T10:50:50.802Z,99129.14
2018-02-03T10:53:52.176Z,99137.00
2018-02-03T10:56:53.657Z,99134.06
2018-02-03T10:59:54.997Z,99126.66
2018-02-03T11:02:56.638Z,99129.56
2018-02-03T11:05:57.980Z,99125.92
2018-02-03T11:08:59.414Z,99135.41
2018-02-03T11:12:00.790Z,99134.12
2018-02-03T11:15:02.108Z,99122.48
2018-02-03T11:18:04.223Z,99125.02
2018-02-03T11:21:05.585Z,99119.30
2018-02-03T11:24:06.945Z,99124.87
2018-02-03T11:27:08.244Z,99119.66
2018-02-03T11:30:10.418Z,99108.91
2018-02-03T11:33:11.730Z,99104.84
2018-02-03T11:36:13.815Z,99106.77
2018-02-03T11:39:15.244Z,99104.50
2018-02-03T11:42:16.581Z,99107.46
2018-02-03T11:45:17.950Z,99095.03
2018-02-03T11:48:19.267Z,99100.86
2018-02-03T11:51:20.617Z,99093.47
2018-02-03T11:54:23.051Z,99098.87
2018-02-03T11:57:25.123Z,99094.81
2018-02-03T12:00:26.475Z,99092.43
2018-02-03T12:03:27.780Z,99092.75
2018-02-03T12:06:29.047Z,99093.11
2018-02-03T12:09:30.452Z,99091.12
2018-02-03T12:12:32.491Z,99091.30
2018-02-03T12:15:33.797Z,99086.42
2018-02-03T12:18:35.055Z,99083.16
2018-02-03T12:21:36.407Z,99092.33
2018-02-03T12:24:37.724Z,99070.70
2018-02-03T12:27:39.005Z,99060.52
2018-02-03T12:30:40.732Z,99063.73
2018-02-03T12:33:42.817Z,99063.45
2018-02-03T12:36:44.154Z,99063.27
2018-02-03T12:39:45.494Z,99047.61
2018-02-03T12:42:46.819Z,99056.52
2018-02-03T12:45:48.177Z,99047.34
2018-02-03T12:48:49.550Z,99061.47
2018-02-03T12:51:51.629Z,99047.30
2018-02-03T12:54:52.982Z,99051.68
2018-02-03T12:57:54.268Z,99048.17
2018-02-03T13:00:55.582Z,99047.84
2018-02-03T13:03:57.651Z,99036.03
2018-02-03T13:06:58.959Z,99040.03
2018-02-03T13:10:01.117Z,99033.67
2018-02-03T13:13:02.553Z,99024.70
2018-02-03T13:16:03.855Z,99031.17
2018-02-03T13:19:05.169Z,99025.75
2018-02-03T13:22:06.499Z,99027.90
2018-02-03T13:25:07.881Z,99029.09
2018-02-03T13:28:09.182Z,99028.06
2018-02-03T13:31:10.498Z,99020.83
2018-02-03T13:34:11.834Z,99018.16
2018-02-03T13:37:13.174Z,99005.74
2018-02-03T13:40:15.251Z,99010.98
2018-02-03T13:43:16.589Z,99020.63
2018-02-03T13:46:17.930Z,99014.19
2018-02-03T13:49:19.243Z,99017.03
2018-02-03T13:52:20.590Z,99012.31
2018-02-03T13:55:21.906Z,99014.09
2018-02-03T13:58:23.262Z,99005.40
2018-02-03T14:01:24.570Z,99016.08
2018-02-03T14:04:25.882Z,99015.05
2018-02-03T14:07:27.187Z,99007.55
2018-02-03T14:10:28.507Z,99012.71
2018-02-03T14:13:29.834Z,99014.61
2018-02-03T14:16:31.143Z,99016.02
2018-02-03T14:19:33.267Z,99012.28
2018-02-03T14:22:34.556Z,99008.25
2018-02-03T14:25:35.928Z,99017.63
2018-02-03T14:28:37.212Z,99017.86
2018-02-03T14:31:38.548Z,99012.44
2018-02-03T14:34:41.317Z,99014.04
2018-02-03T14:37:43.528Z,99013.02
2018-02-03T14:40:44.899Z,99007.63
2018-02-03T14:43:46.255Z,99014.03
2018-02-03T14:46:47.596Z,99029.53
2018-02-03T14:49:48.931Z,99012.73
2018-02-03T14:52:50.255Z,99009.73
2018-02-03T14:55:51.578Z,99018.63
2018-02-03T14:58:52.907Z,99009.72
2018-02-03T15:01:54.242Z,99023.31
2018-02-03T15:04:55.574Z,99017.16
2018-02-03T15:07:57.121Z,99015.44
2018-02-03T15:10:58.501Z,99026.57
2018-02-03T15:13:59.832Z,99036.53
2018-02-03T15:17:01.920Z,99029.78
2018-02-03T15:20:03.259Z,99030.30
2018-02-03T15:23:04.718Z,99022.98
2018-02-03T15:26:06.073Z,99030.92
2018-02-03T15:29:08.156Z,99030.77
2018-02-03T15:32:09.490Z,99022.42
2018-02-03T15:35:11.540Z,99030.69
2018-02-03T15:38:12.847Z,99011.95
2018-02-03T15:41:14.917Z,99022.58
2018-02-03T15:44:16.282Z,99022.34
2018-02-03T15:47:17.618Z,99023.69
2018-02-03T15:50:18.919Z,99018.58
2018-02-03T15:53:20.238Z,99006.39
2018-02-03T15:56:28.467Z,99016.99
2018-02-03T15:59:29.813Z,99019.98
2018-02-03T16:02:38.081Z,99020.19
2018-02-03T16:05:39.342Z,99018.08
2018-02-03T16:08:40.656Z,99019.22
2018-02-03T16:11:42.016Z,99020.16
2018-02-03T16:14:43.299Z,99028.67
2018-02-03T16:17:44.603Z,99030.91
2018-02-03T16:20:45.909Z,99028.84
2018-02-03T16:23:47.255Z,99029.59
2018-02-03T16:26:48.739Z,99039.86
2018-02-03T16:29:50.078Z,99037.04
2018-02-03T16:32:51.389Z,99034.10
2018-02-03T16:35:52.692Z,99036.05
2018-02-03T16:38:54.793Z,99048.19
2018-02-03T16:41:56.072Z,99049.86
2018-02-03T16:44:58.198Z,99045.44
2018-02-03T16:47:59.526Z,99049.05
2018-02-03T16:51:00.882Z,99058.55
2018-02-03T16:54:02.254Z,99058.63
2018-02-03T16:57:03.567Z,99050.06
2018-02-03T17:00:04.906Z,99054.38
2018-02-03T17:03:06.247Z,99063.14
2018-02-03T17:06:08.327Z,99062.25
2018-02-03T17:09:09.658Z,99054.41
2018-02-03T17:12:11.028Z,99065.18
2018-02-03T17:15:12.414Z,99060.56
2018-02-03T17:18:13.769Z,99069.14
2018-02-03T17:21:15.826Z,99070.03
2018-02-03T17:24:17.313Z,99074.70
2018-02-03T17:27:18.735Z,99052.21
2018-02-03T17:30:21.171Z,99080.88
2018-02-03T17:33:22.604Z,99080.63
2018-02-03T17:36:30.090Z,99083.16
2018-02-03T17:39:32.667Z,99084.66
2018-02-03T17:42:35.793Z,99085.27
2018-02-03T17:53:16.623Z,99101.34
2018-02-03T17:56:24.061Z,99102.69
2018-02-03T17:59:25.507Z,99105.30
2018-02-03T18:02:27.795Z,99106.48
2018-02-03T18:05:29.257Z,99108.25
2018-02-03T18:08:30.666Z,99102.44
2018-02-03T18:11:32.081Z,99100.70
2018-02-03T18:14:33.485Z,99106.23
2018-02-03T18:17:34.926Z,99089.84
2018-02-03T18:20:37.089Z,99094.59
2018-02-03T18:23:38.531Z,99106.77
2018-02-03T18:26:39.930Z,99106.08
2018-02-03T18:29:41.362Z,99103.41
2018-02-03T18:32:42.782Z,99106.36
2018-02-03T18:35:44.175Z,99107.36
2018-02-03T18:38:45.599Z,99111.39
2018-02-03T18:41:47.028Z,99116.06
2018-02-03T18:44:48.405Z,99113.12
2018-02-03T18:47:49.877Z,99123.12
2018-02-03T18:50:52.088Z,99120.53
2018-02-03T18:53:53.538Z,99121.61
2018-02-03T18:56:55.048Z,99124.42
2018-02-03T18:59:57.268Z,99129.38
2018-02-03T19:02:58.746Z,99130.28
2018-02-03T19:06:00.215Z,99137.34
2018-02-03T19:09:02.496Z,99134.61
2018-02-03T19:12:03.981Z,99140.13
2018-02-03T19:15:05.467Z,99141.72
2018-02-03T19:18:06.812Z,99141.73
2018-02-03T19:21:08.249Z,99135.70
2018-02-03T19:24:10.452Z,99148.55
2018-02-03T19:27:11.849Z,99143.75
2018-02-03T19:30:13.246Z,99147.22
2018-02-03T19:33:14.731Z,99154.43
2018-02-03T19:36:17.346Z,99151.23
2018-02-03T19:39:18.702Z,99147.58
2018-02-03T19:42:20.045Z,99164.45
2018-02-03T19:45:21.410Z,99159.75
2018-02-03T19:48:22.755Z,99171.27
2018-02-03T19:51:24.076Z,99170.23
2018-02-03T19:54:25.504Z,99164.05
2018-02-03T19:57:26.868Z,99170.94
2018-02-03T20:00:28.186Z,99170.33
2018-02-03T20:03:29.634Z,99172.09
2018-02-03T20:06:30.984Z,99178.83
2018-02-03T20:09:32.388Z,99180.20
2018-02-03T20:12:33.755Z,99183.33
2018-02-03T20:15:35.156Z,99190.95
2018-02-03T20:18:36.513Z,99190.48
2018-02-03T20:21:37.870Z,99191.81
2018-02-03T20:24:39.977Z,99196.86
2018-02-03T20:27:42.091Z,99205.31
2018-02-03T20:30:43.403Z,99207.48
2018-02-03T20:33:44.753Z,99200.31
2018-02-03T20:36:46.074Z,99205.47
2018-02-03T20:39:47.430Z,99210.23
2018-02-03T20:42:48.788Z,99217.59
2018-02-03T20:45:50.893Z,99221.21
2018-02-03T20:48:55.834Z,99220.75
2018-02-03T20:51:57.143Z,99226.02
2018-02-03T20:54:58.569Z,99226.59
2018-02-03T20:57:59.902Z,99225.77
2018-02-03T21:01:01.241Z,99219.91
2018-02-03T21:04:02.561Z,99232.13
2018-02-03T21:07:03.893Z,99222.67
2018-02-03T21:10:05.245Z,99230.82
2018-02-03T21:13:06.598Z,99244.70
2018-02-03T21:16:08.660Z,99242.66
2018-02-03T21:19:10.013Z,99241.67
2018-02-03T21:22:11.363Z,99244.93
2018-02-03T21:25:13.061Z,99248.79
2018-02-03T21:28:14.391Z,99266.74
2018-02-03T21:31:15.687Z,99274.16
2018-02-03T21:34:17.017Z,99280.22
2018-02-03T21:37:18.401Z,99281.28
2018-02-03T21:40:19.768Z,99297.90
2018-02-03T21:43:21.113Z,99304.83
2018-02-03T21:46:23.214Z,99316.23
2018-02-03T21:49:25.302Z,99318.16
2018-02-03T21:52:27.450Z,99331.06
2018-02-03T21:55:28.827Z,99341.26
2018-02-03T21:58:30.174Z,99353.98
2018-02-03T22:01:32.251Z,99364.30
2018-02-03T22:04:33.559Z,99369.39
2018-02-03T22:07:35.750Z,99369.39
2018-02-03T22:10:37.802Z,99379.08
2018-02-03T22:13:39.163Z,99391.98
2018-02-03T22:16:40.499Z,99395.67
2018-02-03T22:19:42.634Z,99401.80
2018-02-03T22:22:43.964Z,99416.82
2018-02-03T22:25:45.308Z,99421.62
2018-02-03T22:28:46.657Z,99425.23
2018-02-03T22:31:48.739Z,99431.37
2018-02-03T22:34:50.873Z,99436.33
2018-02-03T22:37:52.323Z,99442.11
2018-02-03T22:40:54.381Z,99445.98
2018-02-03T22:43:56.213Z,99445.02
2018-02-03T22:46:58.762Z,99441.21
2018-02-03T22:50:00.674Z,99441.61
2018-02-03T22:53:02.562Z,99450.34
2018-02-03T22:56:04.371Z,99450.63
2018-02-03T22:59:05.753Z,99455.39
2018-02-03T23:02:07.228Z,99461.77
2018-02-03T23:05:08.621Z,99460.66
2018-02-03T23:08:10.012Z,99462.27
2018-02-03T23:11:11.402Z,99463.78
2018-02-03T23:14:14.251Z,99468.45
2018-02-03T23:17:15.670Z,99474.85
2018-02-03T23:20:17.045Z,99469.10
2018-02-03T23:23:18.442Z,99483.98
2018-02-03T23:26:20.572Z,99477.17
2018-02-03T23:29:22.705Z,99490.70
2018-02-03T23:32:24.101Z,99486.52
2018-02-03T23:35:25.516Z,99489.62
2018-02-03T23:38:26.885Z,99511.47
2018-02-03T23:41:28.261Z,99514.66
2018-02-03T23:44:29.662Z,99521.11
2018-02-03T23:47:31.037Z,99524.97
2018-02-03T23:50:32.459Z,99526.75
2018-02-03T23:53:33.906Z,99534.73
2018-02-03T23:56:35.323Z,99534.23
2018-02-03T23:59:36.706Z,99550.75
